createdAt,value
2022-09-28T00:02:19.640Z,2.30
2022-09-28T00:04:50.745Z,3.10
2022-09-28T00:09:51.024Z,4.30
2022-09-28T00:12:22.518Z,2.40
2022-09-28T00:14:54.097Z,2.70
2022-09-28T00:17:26.583Z,3.20
2022-09-28T00:19:59.180Z,2.70
2022-09-28T00:22:31.081Z,2.40
2022-09-28T00:25:02.117Z,2.60
2022-09-28T00:27:33.029Z,2.90
2022-09-28T00:30:04.035Z,2.60
2022-09-28T00:32:35.078Z,2.70
2022-09-28T00:35:06.690Z,2.50
2022-09-28T00:37:37.687Z,2.90
2022-09-28T00:40:10.161Z,2.90
2022-09-28T00:42:42.912Z,2.80
2022-09-28T00:45:14.229Z,2.30
2022-09-28T00:47:51.968Z,2.10
2022-09-28T00:50:30.202Z,2.50
2022-09-28T00:53:05.510Z,2.60
2022-09-28T00:55:41.755Z,2.80
2022-09-28T00:58:19.851Z,2.50
2022-09-28T01:00:51.125Z,2.30
2022-09-28T01:03:22.212Z,3.00
2022-09-28T01:05:54.609Z,2.00
2022-09-28T01:08:28.421Z,2.50
2022-09-28T01:11:00.793Z,2.40
2022-09-28T01:13:33.838Z,2.20
2022-09-28T01:16:14.103Z,2.30
2022-09-28T01:18:50.403Z,2.30
2022-09-28T01:21:23.499Z,2.40
2022-09-28T01:24:15.911Z,1.50
2022-09-28T01:27:11.107Z,1.90
2022-09-28T01:29:48.406Z,2.00
2022-09-28T01:32:33.690Z,1.90
2022-09-28T01:35:09.307Z,2.10
2022-09-28T01:37:47.401Z,2.00
2022-09-28T01:40:20.138Z,2.10
2022-09-28T01:42:58.619Z,2.20
2022-09-28T01:45:34.405Z,2.00
2022-09-28T01:48:09.956Z,2.10
2022-09-28T01:50:44.577Z,2.30
2022-09-28T01:53:22.324Z,2.30
2022-09-28T01:55:56.817Z,2.00
2022-09-28T01:58:33.729Z,1.90
2022-09-28T02:03:42.385Z,2.20
2022-09-28T02:06:17.813Z,2.00
2022-09-28T02:08:54.994Z,1.90
2022-09-28T02:11:26.246Z,1.90
2022-09-28T02:14:01.124Z,2.00
2022-09-28T02:16:36.921Z,2.00
2022-09-28T02:19:09.481Z,2.20
2022-09-28T02:21:45.159Z,2.10
2022-09-28T02:24:22.950Z,1.90
2022-09-28T02:26:57.018Z,2.00
2022-09-28T02:29:28.265Z,2.10
2022-09-28T02:31:59.368Z,1.80
2022-09-28T02:34:30.660Z,1.70
2022-09-28T02:37:02.152Z,2.10
2022-09-28T02:39:32.963Z,2.00
2022-09-28T02:42:14.123Z,1.80
2022-09-28T02:45:01.331Z,1.80
2022-09-28T02:47:47.804Z,2.00
2022-09-28T02:50:31.323Z,1.90
2022-09-28T02:53:22.531Z,1.80
2022-09-28T02:56:09.635Z,2.30
2022-09-28T02:58:49.772Z,2.30
2022-09-28T03:01:30.237Z,2.20
2022-09-28T03:04:12.437Z,2.00
2022-09-28T03:06:49.033Z,2.00
2022-09-28T03:09:25.730Z,2.00
2022-09-28T03:12:01.032Z,2.00
2022-09-28T03:14:31.996Z,2.20
2022-09-28T03:17:02.899Z,2.20
2022-09-28T03:19:36.783Z,1.70
2022-09-28T03:22:08.111Z,2.10
2022-09-28T03:24:39.500Z,2.00
2022-09-28T03:27:10.811Z,2.10
2022-09-28T03:29:41.709Z,2.30
2022-09-28T03:32:12.753Z,1.90
2022-09-28T03:34:43.775Z,2.10
2022-09-28T03:39:43.981Z,1.50
2022-09-28T03:44:44.138Z,1.60
2022-09-28T03:47:16.043Z,1.80
2022-09-28T03:49:47.063Z,1.90
2022-09-28T03:52:18.048Z,1.90
2022-09-28T03:54:49.451Z,1.70
2022-09-28T03:57:20.415Z,1.90
2022-09-28T04:02:20.558Z,1.50
2022-09-28T04:04:51.405Z,2.10
2022-09-28T04:07:22.213Z,1.60
2022-09-28T04:09:53.208Z,1.70
2022-09-28T04:12:24.034Z,1.80
2022-09-28T04:17:25.147Z,1.30
2022-09-28T04:19:56.490Z,1.20
2022-09-28T04:22:27.245Z,1.80
2022-09-28T04:27:45.189Z,1.80
2022-09-28T04:30:16.463Z,1.60
2022-09-28T04:32:48.812Z,1.70
2022-09-28T04:35:20.110Z,1.70
2022-09-28T04:40:20.333Z,1.40
2022-09-28T04:42:57.321Z,1.90
2022-09-28T04:45:28.653Z,1.20
2022-09-28T04:47:59.607Z,1.40
2022-09-28T04:53:01.296Z,1.50
2022-09-28T04:55:32.788Z,1.50
2022-09-28T04:58:06.436Z,1.60
2022-09-28T05:00:37.249Z,1.00
2022-09-28T05:03:08.091Z,1.20
2022-09-28T05:05:44.423Z,1.20
2022-09-28T05:08:15.523Z,1.20
2022-09-28T05:10:46.685Z,1.20
2022-09-28T05:13:18.882Z,1.10
2022-09-28T05:15:57.477Z,1.00
2022-09-28T05:18:29.743Z,1.30
2022-09-28T05:21:01.460Z,1.20
2022-09-28T05:23:34.313Z,1.10
2022-09-28T05:26:05.652Z,1.10
2022-09-28T05:28:36.528Z,1.10
2022-09-28T05:31:07.852Z,1.10
2022-09-28T05:33:39.114Z,1.20
2022-09-28T05:36:11.916Z,1.10
2022-09-28T05:38:42.736Z,1.10
2022-09-28T05:43:44.273Z,1.10
2022-09-28T05:46:15.762Z,0.90
2022-09-28T05:48:46.932Z,1.10
2022-09-28T05:51:18.039Z,1.00
2022-09-28T05:53:48.979Z,1.30
2022-09-28T05:56:19.639Z,1.10
2022-09-28T05:58:50.639Z,1.00
2022-09-28T06:01:21.941Z,1.20
2022-09-28T06:03:52.727Z,1.80
2022-09-28T06:06:23.528Z,2.70
2022-09-28T06:08:54.534Z,5.10
2022-09-28T06:13:57.398Z,1.70
2022-09-28T06:16:28.369Z,1.10
2022-09-28T06:21:28.988Z,1.50
2022-09-28T06:24:00.100Z,1.20
2022-09-28T06:26:31.153Z,1.40
2022-09-28T06:29:04.338Z,1.20
2022-09-28T06:31:35.426Z,1.00
2022-09-28T06:34:06.292Z,1.00
2022-09-28T06:39:06.951Z,1.00
2022-09-28T06:41:37.881Z,1.20
2022-09-28T06:44:08.840Z,1.30
2022-09-28T06:46:40.279Z,1.10
2022-09-28T06:49:14.149Z,0.80
2022-09-28T06:51:48.890Z,1.40
2022-09-28T06:54:19.692Z,1.10
2022-09-28T06:56:50.770Z,1.30
2022-09-28T06:59:21.911Z,1.40
2022-09-28T07:01:52.744Z,1.50
2022-09-28T07:04:23.565Z,1.00
2022-09-28T07:09:32.403Z,1.20
2022-09-28T07:12:05.338Z,1.30
2022-09-28T07:14:47.302Z,2.00
2022-09-28T07:17:18.865Z,1.30
2022-09-28T07:19:52.796Z,1.50
2022-09-28T07:22:36.675Z,1.30
2022-09-28T07:25:12.824Z,1.70
2022-09-28T07:27:43.619Z,1.60
2022-09-28T07:32:46.175Z,1.40
2022-09-28T07:35:17.304Z,1.30
2022-09-28T07:37:48.102Z,1.50
2022-09-28T07:40:36.601Z,1.60
2022-09-28T07:43:10.392Z,1.80
2022-09-28T07:45:41.579Z,1.80
2022-09-28T07:50:51.851Z,2.10
2022-09-28T07:53:25.026Z,1.50
2022-09-28T07:55:57.143Z,4.80
2022-09-28T07:58:28.305Z,1.60
2022-09-28T08:01:01.307Z,1.40
2022-09-28T08:03:32.691Z,2.90
2022-09-28T08:06:05.472Z,1.50
2022-09-28T08:08:37.954Z,1.70
2022-09-28T08:11:10.698Z,1.80
2022-09-28T08:13:42.260Z,1.40
2022-09-28T08:16:13.390Z,1.40
2022-09-28T08:18:44.673Z,1.50
2022-09-28T08:24:02.600Z,1.40
2022-09-28T08:26:33.820Z,1.10
2022-09-28T08:29:04.799Z,1.20
2022-09-28T08:31:36.127Z,1.00
2022-09-28T08:34:07.444Z,1.30
2022-09-28T08:36:39.587Z,0.90
2022-09-28T08:39:10.589Z,1.40
2022-09-28T08:41:50.644Z,1.30
2022-09-28T08:44:24.856Z,0.90
2022-09-28T08:47:02.148Z,1.20
2022-09-28T08:49:36.602Z,1.00
2022-09-28T08:52:13.364Z,1.00
2022-09-28T08:54:51.753Z,1.00
2022-09-28T08:57:28.793Z,1.50
2022-09-28T09:00:02.222Z,1.10
2022-09-28T09:02:36.441Z,0.90
2022-09-28T09:05:14.855Z,1.50
2022-09-28T09:07:59.217Z,1.20
2022-09-28T09:10:49.256Z,2.50
2022-09-28T09:13:44.288Z,1.20
2022-09-28T09:16:25.378Z,1.40
2022-09-28T09:19:05.563Z,0.90
2022-09-28T09:21:42.791Z,0.90
2022-09-28T09:27:03.909Z,2.10
2022-09-28T09:29:51.264Z,1.90
2022-09-28T09:32:40.433Z,3.80
2022-09-28T09:35:28.852Z,1.00
2022-09-28T09:38:16.856Z,1.80
2022-09-28T09:41:02.201Z,1.50
2022-09-28T09:43:55.905Z,3.00
2022-09-28T09:46:36.869Z,1.40
2022-09-28T09:49:16.928Z,3.80
2022-09-28T09:51:53.868Z,1.30
2022-09-28T09:54:31.373Z,1.30
2022-09-28T09:57:08.437Z,1.90
2022-09-28T10:02:24.512Z,1.30
2022-09-28T10:04:58.944Z,3.70
2022-09-28T10:07:42.592Z,1.50
2022-09-28T10:10:21.625Z,2.30
2022-09-28T10:12:54.136Z,1.50
2022-09-28T10:15:28.231Z,3.70
2022-09-28T10:18:03.300Z,10.40
2022-09-28T10:20:38.556Z,16.60
2022-09-28T10:23:17.501Z,24.10
2022-09-28T10:25:50.535Z,5.10
2022-09-28T10:28:29.515Z,5.40
2022-09-28T10:31:00.480Z,4.00
2022-09-28T10:33:34.681Z,2.40
2022-09-28T10:36:11.298Z,2.70
2022-09-28T10:38:48.750Z,1.60
2022-09-28T10:41:19.658Z,1.30
2022-09-28T10:46:39.667Z,1.50
2022-09-28T10:49:17.669Z,6.10
2022-09-28T10:51:51.752Z,1.70
2022-09-28T10:54:24.467Z,1.30
2022-09-28T10:56:57.039Z,3.40
2022-09-28T10:59:42.502Z,2.20
2022-09-28T11:02:24.315Z,70.70
2022-09-28T11:04:57.981Z,16.10
2022-09-28T11:07:32.034Z,2.30
2022-09-28T11:10:04.206Z,2.20
2022-09-28T11:12:39.825Z,1.90
2022-09-28T11:15:21.462Z,1.90
2022-09-28T11:17:53.396Z,1.50
2022-09-28T11:20:35.652Z,1.20
2022-09-28T11:23:21.972Z,0.70
2022-09-28T11:26:06.887Z,2.30
2022-09-28T11:28:41.367Z,3.10
2022-09-28T11:31:12.834Z,4.40
2022-09-28T11:33:47.756Z,3.10
2022-09-28T11:36:33.022Z,2.00
2022-09-28T11:39:12.249Z,1.90
2022-09-28T11:41:59.014Z,2.20
2022-09-28T11:44:46.390Z,4.30
2022-09-28T11:47:38.927Z,1.90
2022-09-28T11:50:23.871Z,1.90
2022-09-28T11:53:02.872Z,1.10
2022-09-28T11:55:39.819Z,1.30
2022-09-28T11:58:19.065Z,1.20
2022-09-28T12:00:55.995Z,2.00
2022-09-28T12:03:31.859Z,1.30
2022-09-28T12:06:06.592Z,2.70
2022-09-28T12:08:42.203Z,3.10
2022-09-28T12:11:18.870Z,1.80
2022-09-28T12:13:52.904Z,16.30
2022-09-28T12:16:53.432Z,4.80
2022-09-28T12:19:23.737Z,5.70
2022-09-28T12:22:01.745Z,2.80
2022-09-28T12:24:35.949Z,3.70
2022-09-28T12:27:12.752Z,3.90
2022-09-28T12:29:48.812Z,1.70
2022-09-28T12:32:29.711Z,1.50
2022-09-28T12:35:01.029Z,1.30
2022-09-28T12:37:45.483Z,2.10
2022-09-28T12:40:39.046Z,1.60
2022-09-28T12:43:44.003Z,3.20
2022-09-28T12:46:36.853Z,3.10
2022-09-28T12:50:33.298Z,4.70
2022-09-28T12:55:32.001Z,2.50
2022-09-28T12:58:15.693Z,3.00
2022-09-28T13:01:01.814Z,1.80
2022-09-28T13:04:00.954Z,1.40
2022-09-28T13:06:52.951Z,2.30
2022-09-28T13:09:27.138Z,1.40
2022-09-28T13:12:14.247Z,2.20
2022-09-28T13:15:10.024Z,1.80
2022-09-28T13:17:49.532Z,1.90
2022-09-28T13:20:31.460Z,2.50
2022-09-28T13:23:12.958Z,6.40
2022-09-28T13:25:51.160Z,7.40
2022-09-28T13:28:26.984Z,9.10
2022-09-28T13:33:38.694Z,4.10
2022-09-28T13:36:47.852Z,3.70
2022-09-28T13:39:38.636Z,8.90
2022-09-28T13:42:11.888Z,4.50
2022-09-28T13:44:59.498Z,3.70
2022-09-28T13:47:46.593Z,11.40
2022-09-28T13:50:28.776Z,9.10
2022-09-28T13:53:09.165Z,5.40
2022-09-28T13:55:54.870Z,2.90
2022-09-28T13:58:30.107Z,7.40
2022-09-28T14:01:04.955Z,3.40
2022-09-28T14:03:57.019Z,23.20
2022-09-28T14:06:30.732Z,4.70
2022-09-28T14:09:27.668Z,3.80
2022-09-28T14:12:01.643Z,2.00
2022-09-28T14:17:53.370Z,2.60
2022-09-28T14:20:28.302Z,3.20
2022-09-28T14:23:38.872Z,6.80
2022-09-28T14:26:39.625Z,2.10
2022-09-28T14:29:27.467Z,2.40
2022-09-28T14:32:04.750Z,21.10
2022-09-28T14:34:39.380Z,9.20
2022-09-28T14:37:40.544Z,6.00
2022-09-28T14:40:37.779Z,4.50
2022-09-28T14:43:38.484Z,4.20
2022-09-28T14:46:37.920Z,3.40
2022-09-28T14:49:49.017Z,1.60
2022-09-28T14:52:41.923Z,42.80
2022-09-28T14:55:19.042Z,38.90
2022-09-28T14:57:56.788Z,59.60
2022-09-28T15:00:31.947Z,38.70
2022-09-28T15:03:12.191Z,73.00
2022-09-28T15:05:48.255Z,34.50
2022-09-28T15:08:22.608Z,7.40
2022-09-28T15:10:54.959Z,2.20
2022-09-28T15:13:28.560Z,1.10
2022-09-28T15:16:06.539Z,8.00
2022-09-28T15:19:10.969Z,5.00
2022-09-28T15:21:45.451Z,8.70
2022-09-28T15:24:32.711Z,2.40
2022-09-28T15:27:19.082Z,11.40
2022-09-28T15:30:00.239Z,4.90
2022-09-28T15:32:32.317Z,2.10
2022-09-28T15:35:20.640Z,1.00
2022-09-28T15:37:52.666Z,1.30
2022-09-28T15:40:30.692Z,1.60
2022-09-28T15:43:02.510Z,1.40
2022-09-28T15:45:38.332Z,1.40
2022-09-28T15:48:31.068Z,1.50
2022-09-28T15:51:11.053Z,1.30
2022-09-28T15:53:52.671Z,2.60
2022-09-28T15:56:23.583Z,2.60
2022-09-28T15:59:11.040Z,1.80
2022-09-28T16:01:43.597Z,1.70
2022-09-28T16:04:48.063Z,5.70
2022-09-28T16:07:24.878Z,1.80
2022-09-28T16:10:00.969Z,6.10
2022-09-28T16:12:48.785Z,5.70
2022-09-28T16:15:25.056Z,2.30
2022-09-28T16:18:00.673Z,9.00
2022-09-28T16:20:34.206Z,2.60
2022-09-28T16:23:20.304Z,3.30
2022-09-28T16:25:53.854Z,1.70
2022-09-28T16:28:51.943Z,2.00
2022-09-28T16:31:34.839Z,2.30
2022-09-28T16:34:21.212Z,6.70
2022-09-28T16:36:52.667Z,6.90
2022-09-28T16:39:23.688Z,5.50
2022-09-28T16:42:01.837Z,9.10
2022-09-28T16:44:36.459Z,6.40
2022-09-28T16:47:09.031Z,5.70
2022-09-28T16:49:41.952Z,10.80
2022-09-28T16:52:34.709Z,16.00
2022-09-28T16:58:09.428Z,16.40
2022-09-28T17:00:42.855Z,14.50
2022-09-28T17:03:18.400Z,12.00
2022-09-28T17:05:49.920Z,19.70
2022-09-28T17:08:23.752Z,11.80
2022-09-28T17:13:48.740Z,7.60
2022-09-28T17:16:32.526Z,7.90
2022-09-28T17:19:19.050Z,9.60
2022-09-28T17:21:50.944Z,7.00
2022-09-28T17:24:22.306Z,5.60
2022-09-28T17:26:53.726Z,3.80
2022-09-28T17:29:24.776Z,3.40
2022-09-28T17:34:26.200Z,5.30
2022-09-28T17:39:27.327Z,4.30
2022-09-28T17:41:58.147Z,4.60
2022-09-28T17:44:28.991Z,7.70
2022-09-28T17:47:01.067Z,6.90
2022-09-28T17:49:32.223Z,7.20
2022-09-28T17:52:05.091Z,43.50
2022-09-28T17:54:36.131Z,16.50
2022-09-28T17:57:07.096Z,8.00
2022-09-28T17:59:38.070Z,7.80
2022-09-28T18:02:10.696Z,8.50
2022-09-28T18:04:51.903Z,9.30
2022-09-28T18:07:23.204Z,11.30
2022-09-28T18:09:58.237Z,10.30
2022-09-28T18:12:29.209Z,12.50
2022-09-28T18:17:29.635Z,8.20
2022-09-28T18:20:00.569Z,12.60
2022-09-28T18:22:31.744Z,12.70
2022-09-28T18:27:34.159Z,13.40
2022-09-28T18:30:06.303Z,8.50
2022-09-28T18:32:38.221Z,6.30
2022-09-28T18:35:12.099Z,5.00
2022-09-28T18:37:43.147Z,5.20
2022-09-28T18:40:15.368Z,3.70
2022-09-28T18:42:46.548Z,3.20
2022-09-28T18:45:18.673Z,4.00
2022-09-28T18:47:49.741Z,4.80
2022-09-28T18:50:20.812Z,3.20
2022-09-28T18:52:51.579Z,8.50
2022-09-28T18:55:22.588Z,5.70
2022-09-28T18:57:53.655Z,5.30
2022-09-28T19:00:25.240Z,6.00
2022-09-28T19:02:55.974Z,6.50
2022-09-28T19:05:28.737Z,6.00
2022-09-28T19:08:02.808Z,7.30
2022-09-28T19:10:33.814Z,6.40
2022-09-28T19:13:04.792Z,12.30
2022-09-28T19:15:36.252Z,10.90
2022-09-28T19:18:07.386Z,8.40
2022-09-28T19:23:07.833Z,5.30
2022-09-28T19:25:40.336Z,7.20
2022-09-28T19:28:11.359Z,8.10
2022-09-28T19:30:42.185Z,8.50
2022-09-28T19:33:13.259Z,7.60
2022-09-28T19:35:44.248Z,7.50
2022-09-28T19:38:15.102Z,4.20
2022-09-28T19:40:46.689Z,4.20
2022-09-28T19:43:18.519Z,3.20
2022-09-28T19:45:52.396Z,6.00
2022-09-28T19:48:27.753Z,7.80
2022-09-28T19:50:59.660Z,5.40
2022-09-28T19:53:32.411Z,8.60
2022-09-28T19:56:05.180Z,16.20
2022-09-28T19:58:37.958Z,25.50
2022-09-28T20:01:09.737Z,17.60
2022-09-28T20:03:40.540Z,27.60
2022-09-28T20:06:17.082Z,19.10
2022-09-28T20:08:48.809Z,14.30
2022-09-28T20:11:23.516Z,10.30
2022-09-28T20:13:55.471Z,8.20
2022-09-28T20:16:27.168Z,7.90
2022-09-28T20:19:03.198Z,7.20
2022-09-28T20:21:35.230Z,6.70
2022-09-28T20:24:06.668Z,6.20
2022-09-28T20:26:37.987Z,5.50
2022-09-28T20:29:09.931Z,5.80
2022-09-28T20:31:42.011Z,6.00
2022-09-28T20:34:14.017Z,8.50
2022-09-28T20:36:44.727Z,13.30
2022-09-28T20:39:15.768Z,7.50
2022-09-28T20:41:48.346Z,7.20
2022-09-28T20:44:19.350Z,6.50
2022-09-28T20:46:53.351Z,14.70
2022-09-28T20:49:24.387Z,18.70
2022-09-28T20:51:55.353Z,11.80
2022-09-28T20:54:26.406Z,12.70
2022-09-28T20:56:57.498Z,14.60
2022-09-28T20:59:28.488Z,14.20
2022-09-28T21:04:28.946Z,15.40
2022-09-28T21:06:59.813Z,13.30
2022-09-28T21:09:32.240Z,12.00
2022-09-28T21:12:03.635Z,11.40
2022-09-28T21:14:34.548Z,9.70
2022-09-28T21:17:05.741Z,9.30
2022-09-28T21:19:36.591Z,9.40
2022-09-28T21:22:07.678Z,7.30
2022-09-28T21:24:38.838Z,9.30
2022-09-28T21:27:11.667Z,7.10
2022-09-28T21:29:42.478Z,10.00
2022-09-28T21:32:13.316Z,9.20
2022-09-28T21:34:44.303Z,10.10
2022-09-28T21:37:15.080Z,14.20
2022-09-28T21:39:46.145Z,11.80
2022-09-28T21:42:16.820Z,9.00
2022-09-28T21:44:48.053Z,8.90
2022-09-28T21:47:19.022Z,7.40
2022-09-28T21:49:50.151Z,8.40
2022-09-28T21:52:21.007Z,10.60
2022-09-28T21:54:56.573Z,17.40
2022-09-28T21:57:27.410Z,11.20
2022-09-28T21:59:58.244Z,8.20
2022-09-28T22:02:30.757Z,7.50
2022-09-28T22:05:01.579Z,11.00
2022-09-28T22:07:32.646Z,10.90
2022-09-28T22:10:03.490Z,8.70
2022-09-28T22:12:34.515Z,11.80
2022-09-28T22:15:06.748Z,10.40
2022-09-28T22:17:37.644Z,6.50
2022-09-28T22:20:09.556Z,7.80
2022-09-28T22:22:40.749Z,7.30
2022-09-28T22:25:12.178Z,5.30
2022-09-28T22:27:43.338Z,4.40
2022-09-28T22:30:15.715Z,4.30
2022-09-28T22:32:47.054Z,5.40
2022-09-28T22:37:49.064Z,5.60
2022-09-28T22:40:20.337Z,4.30
2022-09-28T22:42:51.369Z,4.30
2022-09-28T22:45:23.233Z,5.60
2022-09-28T22:47:53.964Z,6.10
2022-09-28T22:50:25.075Z,5.80
2022-09-28T22:52:56.787Z,5.20
2022-09-28T22:55:27.649Z,4.70
2022-09-28T23:00:28.210Z,3.90
2022-09-28T23:02:59.182Z,4.60
2022-09-28T23:05:30.295Z,4.70
2022-09-28T23:10:34.253Z,4.60
2022-09-28T23:13:05.189Z,5.00
2022-09-28T23:18:06.118Z,4.20
2022-09-28T23:20:37.471Z,4.00
2022-09-28T23:23:08.309Z,4.20
2022-09-28T23:25:39.412Z,3.30
2022-09-28T23:28:10.416Z,3.90
2022-09-28T23:30:41.425Z,4.80
2022-09-28T23:33:14.848Z,4.60
2022-09-28T23:35:45.959Z,4.30
2022-09-28T23:38:18.859Z,6.60
2022-09-28T23:40:50.338Z,7.00
2022-09-28T23:43:21.191Z,6.30
2022-09-28T23:45:52.093Z,4.70
2022-09-28T23:48:23.091Z,4.70
2022-09-28T23:50:54.044Z,4.90
2022-09-28T23:53:25.367Z,5.10
2022-09-28T23:55:56.997Z,6.20
2022-09-28T23:58:28.303Z,6.90
